createdAt,value
2023-05-07T00:03:30.415Z,216501.00
2023-05-07T00:09:32.981Z,216420.00
2023-05-07T00:15:35.357Z,216339.00
2023-05-07T00:21:37.806Z,216304.00
2023-05-07T00:27:40.194Z,216240.00
2023-05-07T00:33:43.278Z,216196.00
2023-05-07T00:39:45.860Z,216078.00
2023-05-07T00:45:48.521Z,216001.00
2023-05-07T00:51:51.243Z,216001.00
2023-05-07T00:57:53.849Z,215957.00
2023-05-07T01:03:56.367Z,215909.00
2023-05-07T01:09:59.256Z,215847.00
2023-05-07T01:16:01.694Z,215819.00
2023-05-07T01:22:08.868Z,215791.00
2023-05-07T01:28:20.919Z,215742.00
2023-05-07T01:34:24.692Z,215700.00
2023-05-07T01:40:28.144Z,215678.00
2023-05-07T01:46:32.761Z,215596.00
2023-05-07T01:52:35.825Z,215552.00
2023-05-07T01:58:38.434Z,215469.00
2023-05-07T02:04:41.095Z,215441.00
2023-05-07T02:10:43.850Z,215377.00
2023-05-07T02:16:46.281Z,215369.00
2023-05-07T02:22:50.721Z,215369.00
2023-05-07T02:28:53.425Z,215323.00
2023-05-07T02:34:56.593Z,215329.00
2023-05-07T02:40:58.929Z,215329.00
2023-05-07T02:47:01.528Z,215349.00
2023-05-07T02:53:05.430Z,215349.00
2023-05-07T02:59:07.703Z,215337.00
2023-05-07T03:05:15.973Z,215349.00
2023-05-07T03:11:18.618Z,215371.00
2023-05-07T03:17:22.203Z,215348.00
2023-05-07T03:23:25.106Z,215369.00
2023-05-07T03:29:27.824Z,215413.00
2023-05-07T03:35:30.172Z,215477.00
2023-05-07T03:41:34.063Z,215560.00
2023-05-07T03:47:36.922Z,215678.00
2023-05-07T03:53:40.320Z,215805.00
2023-05-07T03:59:43.103Z,215929.00
2023-05-07T04:05:46.221Z,216086.00
2023-05-07T04:11:49.092Z,216268.00
2023-05-07T04:17:51.663Z,216442.00
2023-05-07T04:23:57.383Z,216607.00
2023-05-07T04:30:01.957Z,216691.00
2023-05-07T04:36:08.795Z,216810.00
2023-05-07T04:42:19.445Z,216978.00
2023-05-07T04:48:21.821Z,217176.00
2023-05-07T04:54:26.566Z,217406.00
2023-05-07T05:00:28.991Z,217532.00
2023-05-07T05:06:33.015Z,217765.00
2023-05-07T05:12:37.922Z,217875.00
2023-05-07T05:18:40.650Z,217853.00
2023-05-07T05:24:44.878Z,218230.00
2023-05-07T05:30:48.040Z,218439.00
2023-05-07T05:36:50.796Z,218794.00
2023-05-07T05:42:53.172Z,219062.00
2023-05-07T05:48:55.842Z,221033.00
2023-05-07T05:54:58.166Z,222891.00
2023-05-07T06:01:04.018Z,224255.00
2023-05-07T06:07:07.792Z,225129.00
2023-05-07T06:13:10.557Z,225201.00
2023-05-07T06:19:13.983Z,225937.00
2023-05-07T06:25:17.878Z,226819.00
2023-05-07T06:31:24.200Z,227170.00
2023-05-07T06:37:39.857Z,227285.00
2023-05-07T06:43:43.772Z,227616.00
2023-05-07T06:50:17.424Z,226950.00
2023-05-07T06:56:21.438Z,226707.00
2023-05-07T07:02:23.962Z,226745.00
2023-05-07T07:08:26.881Z,226964.00
2023-05-07T07:14:29.129Z,226362.00
2023-05-07T07:20:31.634Z,226691.00
2023-05-07T07:26:34.683Z,227568.00
2023-05-07T07:32:37.296Z,228040.00
2023-05-07T07:38:40.563Z,227592.00
2023-05-07T07:44:43.706Z,227663.00
2023-05-07T07:50:51.596Z,227471.00
2023-05-07T07:56:55.417Z,227739.00
2023-05-07T08:03:02.217Z,227400.00
2023-05-07T08:09:09.682Z,227715.00
2023-05-07T08:15:13.599Z,227186.00
2023-05-07T08:21:16.147Z,227400.00
2023-05-07T08:27:18.587Z,226745.00
2023-05-07T08:33:22.029Z,226881.00
2023-05-07T08:39:24.525Z,227234.00
2023-05-07T08:45:31.948Z,227923.00
2023-05-07T08:51:35.509Z,227218.00
2023-05-07T08:57:40.287Z,227017.00
2023-05-07T09:03:48.809Z,227162.00
2023-05-07T09:09:51.916Z,227669.00
2023-05-07T09:15:56.954Z,227845.00
2023-05-07T09:22:02.708Z,227631.00
2023-05-07T09:28:12.166Z,226942.00
2023-05-07T09:34:14.502Z,226119.00
2023-05-07T09:40:25.002Z,226316.00
2023-05-07T09:46:33.854Z,226506.00
2023-05-07T09:52:42.881Z,226498.00
2023-05-07T09:58:47.849Z,226705.00
2023-05-07T10:04:52.408Z,226667.00
2023-05-07T10:11:01.204Z,226942.00
2023-05-07T10:17:05.609Z,226675.00
2023-05-07T10:23:10.537Z,226528.00
2023-05-07T10:29:40.562Z,226226.00
2023-05-07T10:35:46.427Z,226574.00
2023-05-07T10:41:50.198Z,226558.00
2023-05-07T10:48:29.481Z,226194.00
2023-05-07T10:54:40.682Z,225861.00
2023-05-07T11:00:47.491Z,225937.00
2023-05-07T11:07:08.177Z,225556.00
2023-05-07T11:13:16.434Z,225143.00
2023-05-07T11:19:53.949Z,225091.00
2023-05-07T11:26:12.845Z,225172.00
2023-05-07T11:32:16.456Z,225059.00
2023-05-07T11:38:26.951Z,225035.00
2023-05-07T11:44:47.508Z,225430.00
2023-05-07T11:50:54.830Z,225165.00
2023-05-07T11:56:57.592Z,224503.00
2023-05-07T12:03:05.614Z,224938.00
2023-05-07T12:09:12.902Z,225165.00
2023-05-07T12:15:18.933Z,226027.00
2023-05-07T12:21:21.347Z,225285.00
2023-05-07T12:27:23.689Z,225798.00
2023-05-07T12:33:27.823Z,226566.00
2023-05-07T12:39:30.400Z,227039.00
2023-05-07T12:45:32.864Z,226308.00
2023-05-07T12:51:36.940Z,226430.00
2023-05-07T12:57:41.431Z,225746.00
2023-05-07T13:03:50.148Z,225473.00
2023-05-07T13:09:52.963Z,225051.00
2023-05-07T13:15:55.422Z,224398.00
2023-05-07T13:21:57.987Z,223876.00
2023-05-07T13:28:10.175Z,223388.00
2023-05-07T13:34:13.705Z,222983.00
2023-05-07T13:40:16.799Z,223121.00
2023-05-07T13:46:19.136Z,223086.00
2023-05-07T13:52:21.916Z,222981.00
2023-05-07T13:58:24.323Z,222983.00
2023-05-07T14:04:27.253Z,222759.00
2023-05-07T14:10:29.559Z,222676.00
2023-05-07T14:16:32.210Z,222537.00
2023-05-07T14:22:34.636Z,222380.00
2023-05-07T14:28:37.202Z,222388.00
2023-05-07T14:34:39.376Z,222359.00
2023-05-07T14:40:41.649Z,222159.00
2023-05-07T14:46:43.925Z,222167.00
2023-05-07T14:52:46.249Z,222115.00
2023-05-07T14:58:49.204Z,222001.00
2023-05-07T15:04:51.861Z,221939.00
2023-05-07T15:10:54.489Z,221858.00
2023-05-07T15:16:56.907Z,221771.00
2023-05-07T15:22:59.980Z,221779.00
2023-05-07T15:29:04.609Z,221698.00
2023-05-07T15:35:07.473Z,221579.00
2023-05-07T15:41:10.726Z,221595.00
2023-05-07T15:47:15.342Z,221478.00
2023-05-07T15:53:17.784Z,221433.00
2023-05-07T15:59:20.235Z,221337.00
2023-05-07T16:05:22.735Z,221267.00
2023-05-07T16:11:24.905Z,221221.00
2023-05-07T16:17:27.503Z,221120.00
2023-05-07T16:23:30.064Z,221033.00
2023-05-07T16:29:32.449Z,220960.00
2023-05-07T16:35:34.771Z,220876.00
2023-05-07T16:41:37.152Z,220797.00
2023-05-07T16:47:39.976Z,220726.00
2023-05-07T16:53:42.157Z,220667.00
2023-05-07T16:59:44.371Z,220558.00
2023-05-07T17:05:46.909Z,220471.00
2023-05-07T17:11:49.109Z,220376.00
2023-05-07T17:17:51.441Z,220288.00
2023-05-07T17:23:53.682Z,220218.00
2023-05-07T17:29:55.895Z,220130.00
2023-05-07T17:35:58.072Z,220057.00
2023-05-07T17:42:00.743Z,219970.00
2023-05-07T17:48:03.928Z,219927.00
2023-05-07T17:54:06.301Z,219833.00
2023-05-07T18:00:10.049Z,219796.00
2023-05-07T18:06:18.505Z,219717.00
2023-05-07T18:12:22.231Z,219652.00
2023-05-07T18:18:26.600Z,219594.00
2023-05-07T18:24:28.973Z,219515.00
2023-05-07T18:30:31.231Z,219436.00
2023-05-07T18:36:33.785Z,219386.00
2023-05-07T18:42:37.283Z,219327.00
2023-05-07T18:48:39.892Z,219283.00
2023-05-07T18:54:46.132Z,219247.00
2023-05-07T19:00:50.083Z,219263.00
2023-05-07T19:06:52.404Z,219305.00
2023-05-07T19:12:55.917Z,219333.00
2023-05-07T19:18:58.047Z,219327.00
2023-05-07T19:25:00.561Z,219313.00
2023-05-07T19:31:02.692Z,219291.00
2023-05-07T19:37:06.216Z,219269.00
2023-05-07T19:43:09.090Z,219247.00
2023-05-07T19:49:12.890Z,219261.00
2023-05-07T19:55:15.573Z,219261.00
2023-05-07T20:01:18.299Z,219269.00
2023-05-07T20:07:20.979Z,219277.00
2023-05-07T20:13:23.418Z,219233.00
2023-05-07T20:19:26.400Z,219213.00
2023-05-07T20:25:29.354Z,219191.00
2023-05-07T20:31:32.731Z,219177.00
2023-05-07T20:37:36.114Z,219133.00
2023-05-07T20:43:38.663Z,218953.00
2023-05-07T20:49:41.032Z,218824.00
2023-05-07T20:55:43.006Z,218631.00
2023-05-07T21:01:45.268Z,218439.00
2023-05-07T21:07:47.841Z,218280.00
2023-05-07T21:13:50.304Z,218124.00
2023-05-07T21:19:52.551Z,218001.00
2023-05-07T21:25:54.757Z,217875.00
2023-05-07T21:31:57.104Z,217781.00
2023-05-07T21:38:01.068Z,217680.00
2023-05-07T21:44:04.673Z,217590.00
2023-05-07T21:50:07.854Z,217482.00
2023-05-07T21:56:09.931Z,217398.00
2023-05-07T22:02:12.039Z,217332.00
2023-05-07T22:08:14.244Z,217277.00
2023-05-07T22:14:17.810Z,217241.00
2023-05-07T22:20:21.261Z,217176.00
2023-05-07T22:26:23.732Z,217121.00
2023-05-07T22:32:26.132Z,217071.00
2023-05-07T22:38:28.278Z,217036.00
2023-05-07T22:44:30.652Z,217000.00
2023-05-07T22:50:39.770Z,216978.00
2023-05-07T22:56:43.001Z,216928.00
2023-05-07T23:02:45.515Z,216868.00
2023-05-07T23:08:47.701Z,216802.00
2023-05-07T23:14:50.096Z,216782.00
2023-05-07T23:20:52.286Z,216725.00
2023-05-07T23:26:54.491Z,216705.00
2023-05-07T23:32:56.787Z,216620.00
2023-05-07T23:38:59.126Z,216593.00
2023-05-07T23:45:01.737Z,216551.00
2023-05-07T23:51:04.335Z,216599.00
2023-05-07T23:57:06.770Z,216647.00
